createdAt,value
2023-03-29T00:02:32.936Z,-5.29
2023-03-29T00:05:04.594Z,-5.20
2023-03-29T00:07:35.745Z,-5.25
2023-03-29T00:10:10.132Z,-5.44
2023-03-29T00:12:40.704Z,-5.57
2023-03-29T00:15:11.423Z,-5.62
2023-03-29T00:17:41.182Z,-5.32
2023-03-29T00:20:12.588Z,-5.32
2023-03-29T00:22:43.365Z,-5.27
2023-03-29T00:25:16.652Z,-5.33
2023-03-29T00:27:46.233Z,-5.37
2023-03-29T00:30:16.726Z,-5.25
2023-03-29T00:32:47.023Z,-5.23
2023-03-29T00:35:16.754Z,-5.29
2023-03-29T00:37:48.449Z,-5.40
2023-03-29T00:40:20.940Z,-5.36
2023-03-29T00:42:50.535Z,-5.43
2023-03-29T00:45:22.511Z,-5.49
2023-03-29T00:47:55.779Z,-5.62
2023-03-29T00:50:29.828Z,-5.74
2023-03-29T00:53:04.581Z,-5.84
2023-03-29T00:55:40.505Z,-5.90
2023-03-29T00:58:14.523Z,-5.86
2023-03-29T01:00:52.370Z,-5.67
2023-03-29T01:03:25.287Z,-5.61
2023-03-29T01:06:00.537Z,-5.50
2023-03-29T01:08:34.780Z,-5.46
2023-03-29T01:11:11.625Z,-5.39
2023-03-29T01:13:44.902Z,-5.52
2023-03-29T01:16:18.966Z,-5.62
2023-03-29T01:18:49.023Z,-5.65
2023-03-29T01:21:23.986Z,-5.67
2023-03-29T01:24:18.280Z,-5.65
2023-03-29T01:27:00.788Z,-5.52
2023-03-29T01:29:37.081Z,-5.50
2023-03-29T01:32:11.729Z,-5.37
2023-03-29T01:34:46.157Z,-5.39
2023-03-29T01:37:22.104Z,-5.34
2023-03-29T01:39:51.666Z,-5.29
2023-03-29T01:42:42.127Z,-5.24
2023-03-29T01:45:25.703Z,-5.17
2023-03-29T01:48:01.958Z,-5.25
2023-03-29T01:50:42.685Z,-5.28
2023-03-29T01:53:18.240Z,-5.37
2023-03-29T01:55:52.864Z,-5.45
2023-03-29T01:58:26.643Z,-5.58
2023-03-29T02:01:00.131Z,-5.49
2023-03-29T02:03:34.091Z,-5.49
2023-03-29T02:06:05.830Z,-5.59
2023-03-29T02:08:35.876Z,-5.58
2023-03-29T02:11:05.469Z,-5.48
2023-03-29T02:13:35.039Z,-5.48
2023-03-29T02:16:12.655Z,-5.57
2023-03-29T02:18:43.933Z,-5.73
2023-03-29T02:21:22.257Z,-5.76
2023-03-29T02:23:54.862Z,-5.76
2023-03-29T02:26:25.299Z,-5.70
2023-03-29T02:28:56.054Z,-5.78
2023-03-29T02:31:35.856Z,-5.85
2023-03-29T02:34:10.994Z,-5.89
2023-03-29T02:36:45.091Z,-6.10
2023-03-29T02:39:16.565Z,-6.09
2023-03-29T02:41:49.294Z,-6.11
2023-03-29T02:44:23.225Z,-6.29
2023-03-29T02:47:00.015Z,-6.40
2023-03-29T02:49:30.524Z,-6.27
2023-03-29T02:52:06.880Z,-6.39
2023-03-29T02:54:38.092Z,-6.41
2023-03-29T02:57:08.904Z,-6.37
2023-03-29T02:59:39.303Z,-6.35
2023-03-29T03:02:11.809Z,-6.35
2023-03-29T03:04:41.604Z,-6.34
2023-03-29T03:07:11.122Z,-6.29
2023-03-29T03:09:40.683Z,-6.34
2023-03-29T03:12:10.283Z,-6.36
2023-03-29T03:14:39.826Z,-6.26
2023-03-29T03:17:11.946Z,-6.33
2023-03-29T03:19:42.036Z,-6.39
2023-03-29T03:22:11.810Z,-6.42
2023-03-29T03:24:41.339Z,-6.44
2023-03-29T03:27:10.840Z,-6.49
2023-03-29T03:29:41.661Z,-6.42
2023-03-29T03:32:14.309Z,-6.35
2023-03-29T03:34:43.876Z,-6.29
2023-03-29T03:37:15.663Z,-6.14
2023-03-29T03:39:45.184Z,-6.10
2023-03-29T03:42:14.734Z,-6.04
2023-03-29T03:44:45.083Z,-5.97
2023-03-29T03:47:17.357Z,-5.90
2023-03-29T03:49:46.866Z,-5.84
2023-03-29T03:52:16.871Z,-5.76
2023-03-29T03:54:46.855Z,-5.77
2023-03-29T03:57:16.722Z,-5.77
2023-03-29T03:59:46.329Z,-5.72
2023-03-29T04:02:20.403Z,-5.75
2023-03-29T04:04:49.965Z,-5.76
2023-03-29T04:07:20.210Z,-5.75
2023-03-29T04:09:49.779Z,-5.78
2023-03-29T04:12:19.314Z,-5.76
2023-03-29T04:14:49.064Z,-5.76
2023-03-29T04:17:21.281Z,-5.74
2023-03-29T04:19:50.813Z,-5.69
2023-03-29T04:22:20.316Z,-5.74
2023-03-29T04:24:49.871Z,-5.79
2023-03-29T04:27:19.524Z,-5.86
2023-03-29T04:29:49.133Z,-5.89
2023-03-29T04:32:21.302Z,-5.76
2023-03-29T04:34:50.863Z,-5.74
2023-03-29T04:37:22.180Z,-5.73
2023-03-29T04:39:52.568Z,-5.60
2023-03-29T04:42:22.118Z,-5.32
2023-03-29T04:44:53.365Z,-5.13
2023-03-29T04:47:29.811Z,-4.88
2023-03-29T04:49:59.781Z,-4.58
2023-03-29T04:52:33.317Z,-4.01
2023-03-29T04:55:02.965Z,-3.52
2023-03-29T04:57:32.873Z,-3.13
2023-03-29T05:00:02.472Z,-2.90
2023-03-29T05:02:34.588Z,-2.42
2023-03-29T05:05:04.573Z,-2.01
2023-03-29T05:07:34.082Z,-0.83
2023-03-29T05:10:03.616Z,-0.52
2023-03-29T05:12:33.197Z,-0.59
2023-03-29T05:15:02.723Z,-0.72
2023-03-29T05:17:34.890Z,-0.70
2023-03-29T05:20:07.384Z,-0.87
2023-03-29T05:22:36.958Z,-0.62
2023-03-29T05:25:07.112Z,-0.78
2023-03-29T05:27:37.144Z,-1.15
2023-03-29T05:30:07.594Z,-1.01
2023-03-29T05:32:41.948Z,-1.12
2023-03-29T05:35:12.796Z,-1.05
2023-03-29T05:37:42.397Z,-1.22
2023-03-29T05:40:13.570Z,-1.23
2023-03-29T05:42:43.127Z,-1.39
2023-03-29T05:45:13.824Z,-1.28
2023-03-29T05:47:46.506Z,-0.84
2023-03-29T05:50:16.055Z,-0.31
2023-03-29T05:52:46.117Z,-0.49
2023-03-29T05:55:15.792Z,-0.42
2023-03-29T05:57:45.348Z,-0.22
2023-03-29T06:00:24.314Z,0.29
2023-03-29T06:03:03.759Z,1.44
2023-03-29T06:05:43.071Z,2.67
2023-03-29T06:08:12.763Z,3.20
2023-03-29T06:10:42.363Z,2.99
2023-03-29T06:13:12.142Z,3.18
2023-03-29T06:15:41.668Z,4.29
2023-03-29T06:18:13.762Z,5.76
2023-03-29T06:20:43.418Z,4.12
2023-03-29T06:23:13.068Z,3.18
2023-03-29T06:25:43.174Z,4.24
2023-03-29T06:28:12.734Z,4.52
2023-03-29T06:30:42.274Z,7.81
2023-03-29T06:33:14.901Z,9.61
2023-03-29T06:35:46.410Z,9.97
2023-03-29T06:38:16.748Z,10.74
2023-03-29T06:40:47.416Z,10.85
2023-03-29T06:43:17.324Z,9.97
2023-03-29T06:45:47.332Z,10.10
2023-03-29T06:48:19.446Z,10.73
2023-03-29T06:50:50.607Z,10.68
2023-03-29T06:53:20.232Z,10.63
2023-03-29T06:55:49.782Z,9.77
2023-03-29T06:58:19.886Z,10.26
2023-03-29T07:00:49.872Z,11.81
2023-03-29T07:03:23.755Z,12.91
2023-03-29T07:06:01.344Z,11.10
2023-03-29T07:08:31.930Z,11.45
2023-03-29T07:11:03.520Z,8.00
2023-03-29T07:13:33.263Z,8.68
2023-03-29T07:16:02.882Z,9.09
2023-03-29T07:18:35.024Z,7.31
2023-03-29T07:21:05.416Z,6.68
2023-03-29T07:23:35.019Z,6.66
2023-03-29T07:26:05.987Z,7.19
2023-03-29T07:28:37.631Z,7.24
2023-03-29T07:31:08.220Z,7.17
2023-03-29T07:33:41.214Z,8.26
2023-03-29T07:36:11.852Z,8.64
2023-03-29T07:38:41.946Z,8.92
2023-03-29T07:41:11.524Z,8.53
2023-03-29T07:43:41.935Z,9.41
2023-03-29T07:46:12.809Z,10.77
2023-03-29T07:48:44.973Z,11.43
2023-03-29T07:51:14.501Z,10.46
2023-03-29T07:53:44.019Z,11.98
2023-03-29T07:56:13.525Z,12.67
2023-03-29T07:58:43.156Z,11.66
2023-03-29T08:01:18.895Z,11.75
2023-03-29T08:03:52.383Z,12.06
2023-03-29T08:06:22.435Z,12.10
2023-03-29T08:08:52.477Z,12.03
2023-03-29T08:11:22.001Z,11.31
2023-03-29T08:13:51.677Z,9.41
2023-03-29T08:16:21.845Z,9.74
2023-03-29T08:18:53.953Z,10.49
2023-03-29T08:21:23.492Z,10.35
2023-03-29T08:23:53.480Z,10.08
2023-03-29T08:26:23.081Z,10.51
2023-03-29T08:28:52.629Z,10.34
2023-03-29T08:31:22.342Z,9.52
2023-03-29T08:33:54.514Z,8.88
2023-03-29T08:36:24.044Z,8.90
2023-03-29T08:38:53.565Z,9.22
2023-03-29T08:41:36.775Z,9.27
2023-03-29T08:44:18.352Z,8.33
2023-03-29T08:46:54.762Z,8.16
2023-03-29T08:49:28.180Z,8.80
2023-03-29T08:52:00.728Z,8.40
2023-03-29T08:54:35.898Z,8.28
2023-03-29T08:57:11.112Z,8.55
2023-03-29T08:59:43.286Z,8.08
2023-03-29T09:02:19.658Z,8.65
2023-03-29T09:04:53.467Z,9.16
2023-03-29T09:07:25.976Z,10.99
2023-03-29T09:09:57.349Z,11.80
2023-03-29T09:12:41.340Z,12.22
2023-03-29T09:15:16.347Z,12.05
2023-03-29T09:17:58.757Z,11.08
2023-03-29T09:20:41.338Z,12.06
2023-03-29T09:23:25.413Z,12.89
2023-03-29T09:26:03.444Z,13.32
2023-03-29T09:28:39.880Z,12.92
2023-03-29T09:31:16.893Z,13.34
2023-03-29T09:33:49.920Z,13.43
2023-03-29T09:36:27.913Z,11.81
2023-03-29T09:38:57.667Z,11.84
2023-03-29T09:41:33.945Z,12.50
2023-03-29T09:44:20.567Z,12.97
2023-03-29T09:47:02.121Z,14.24
2023-03-29T09:49:35.746Z,14.15
2023-03-29T09:52:13.871Z,14.10
2023-03-29T09:54:43.527Z,12.88
2023-03-29T09:57:15.251Z,13.80
2023-03-29T09:59:45.547Z,14.62
2023-03-29T10:02:16.843Z,14.17
2023-03-29T10:04:46.381Z,13.99
2023-03-29T10:07:22.929Z,12.79
2023-03-29T10:09:55.377Z,13.00
2023-03-29T10:12:25.717Z,11.91
2023-03-29T10:14:57.646Z,10.94
2023-03-29T10:17:32.832Z,10.61
2023-03-29T10:20:07.522Z,11.25
2023-03-29T10:22:41.770Z,10.99
2023-03-29T10:25:17.263Z,10.71
2023-03-29T10:27:49.558Z,10.55
2023-03-29T10:30:25.508Z,10.29
2023-03-29T10:32:59.903Z,9.86
2023-03-29T10:35:33.470Z,9.32
2023-03-29T10:38:07.977Z,9.82
2023-03-29T10:40:38.582Z,9.51
2023-03-29T10:43:17.042Z,9.69
2023-03-29T10:45:47.255Z,9.66
2023-03-29T10:48:18.110Z,9.77
2023-03-29T10:50:53.340Z,9.79
2023-03-29T10:53:29.711Z,9.81
2023-03-29T10:56:11.528Z,9.74
2023-03-29T10:58:55.215Z,9.71
2023-03-29T11:01:30.019Z,9.20
2023-03-29T11:04:16.169Z,9.06
2023-03-29T11:06:54.503Z,9.39
2023-03-29T11:09:37.622Z,9.03
2023-03-29T11:12:17.005Z,9.67
2023-03-29T11:15:00.106Z,9.42
2023-03-29T11:17:42.958Z,9.71
2023-03-29T11:20:22.539Z,9.48
2023-03-29T11:22:58.585Z,9.50
2023-03-29T11:25:45.682Z,9.94
2023-03-29T11:28:24.300Z,9.82
2023-03-29T11:31:03.885Z,9.86
2023-03-29T11:33:46.191Z,9.89
2023-03-29T11:36:22.052Z,9.85
2023-03-29T11:39:02.444Z,10.12
2023-03-29T11:41:37.533Z,10.56
2023-03-29T11:44:13.527Z,11.18
2023-03-29T11:46:47.028Z,11.10
2023-03-29T11:49:22.333Z,11.82
2023-03-29T11:51:57.182Z,12.08
2023-03-29T11:54:31.613Z,11.93
2023-03-29T11:57:10.103Z,12.75
2023-03-29T11:59:47.995Z,13.47
2023-03-29T12:02:24.652Z,13.03
2023-03-29T12:04:58.061Z,13.40
2023-03-29T12:07:32.378Z,11.56
2023-03-29T12:10:04.848Z,10.74
2023-03-29T12:12:46.220Z,10.30
2023-03-29T12:15:21.712Z,10.06
2023-03-29T12:18:02.884Z,10.10
2023-03-29T12:20:36.558Z,9.95
2023-03-29T12:23:08.239Z,9.78
2023-03-29T12:25:47.752Z,9.63
2023-03-29T12:28:43.273Z,9.63
2023-03-29T12:31:23.985Z,9.83
2023-03-29T12:34:20.116Z,9.40
2023-03-29T12:37:03.623Z,9.67
2023-03-29T12:39:33.920Z,9.54
2023-03-29T12:42:18.071Z,9.83
2023-03-29T12:44:53.583Z,9.73
2023-03-29T12:47:26.325Z,9.74
2023-03-29T12:49:59.469Z,10.01
2023-03-29T12:52:33.182Z,9.98
2023-03-29T12:55:04.685Z,9.80
2023-03-29T12:57:43.739Z,9.63
2023-03-29T13:00:23.961Z,9.84
2023-03-29T13:03:04.062Z,9.95
2023-03-29T13:05:36.485Z,10.00
2023-03-29T13:08:26.173Z,9.91
2023-03-29T13:10:58.243Z,9.94
2023-03-29T13:13:30.935Z,9.83
2023-03-29T13:16:15.272Z,9.93
2023-03-29T13:18:56.605Z,10.35
2023-03-29T13:21:38.097Z,10.30
2023-03-29T13:24:27.340Z,10.20
2023-03-29T13:27:04.443Z,10.31
2023-03-29T13:29:50.435Z,10.29
2023-03-29T13:32:34.046Z,10.24
2023-03-29T13:35:12.948Z,10.20
2023-03-29T13:37:54.348Z,10.34
2023-03-29T13:40:43.320Z,10.39
2023-03-29T13:43:21.977Z,10.23
2023-03-29T13:46:07.959Z,10.06
2023-03-29T13:48:55.594Z,10.22
2023-03-29T13:51:36.568Z,10.21
2023-03-29T13:54:16.067Z,10.01
2023-03-29T13:56:58.025Z,10.09
2023-03-29T13:59:34.329Z,10.18
2023-03-29T14:02:06.002Z,10.22
2023-03-29T14:04:43.968Z,10.05
2023-03-29T14:07:16.975Z,9.90
2023-03-29T14:09:52.598Z,9.72
2023-03-29T14:12:22.375Z,9.71
2023-03-29T14:14:58.829Z,9.71
2023-03-29T14:17:29.892Z,9.73
2023-03-29T14:20:04.954Z,9.71
2023-03-29T14:22:36.779Z,9.62
2023-03-29T14:25:15.573Z,9.45
2023-03-29T14:27:45.445Z,9.38
2023-03-29T14:30:25.188Z,9.53
2023-03-29T14:32:55.209Z,9.42
2023-03-29T14:35:32.445Z,9.57
2023-03-29T14:38:02.595Z,9.61
2023-03-29T14:40:35.003Z,9.71
2023-03-29T14:43:11.274Z,9.66
2023-03-29T14:45:41.351Z,9.59
2023-03-29T14:48:15.097Z,9.64
2023-03-29T14:50:53.272Z,9.78
2023-03-29T14:53:26.212Z,9.62
2023-03-29T14:55:56.674Z,9.71
2023-03-29T14:58:31.118Z,9.89
2023-03-29T15:01:01.587Z,10.02
2023-03-29T15:03:32.201Z,9.92
2023-03-29T15:06:07.442Z,9.96
2023-03-29T15:08:39.312Z,9.84
2023-03-29T15:11:17.061Z,9.84
2023-03-29T15:13:47.261Z,9.74
2023-03-29T15:16:19.291Z,9.66
2023-03-29T15:18:51.421Z,9.56
2023-03-29T15:21:25.011Z,9.68
2023-03-29T15:23:57.739Z,9.40
2023-03-29T15:26:31.218Z,9.47
2023-03-29T15:29:08.293Z,9.38
2023-03-29T15:31:40.152Z,9.27
2023-03-29T15:34:11.403Z,8.99
2023-03-29T15:36:46.623Z,8.77
2023-03-29T15:39:17.537Z,8.69
2023-03-29T15:41:49.271Z,8.57
2023-03-29T15:44:20.904Z,8.39
2023-03-29T15:46:50.479Z,8.29
2023-03-29T15:49:20.004Z,8.24
2023-03-29T15:51:52.887Z,8.18
2023-03-29T15:54:22.708Z,8.07
2023-03-29T15:56:55.414Z,8.05
2023-03-29T15:59:25.716Z,8.05
2023-03-29T16:01:55.455Z,8.09
2023-03-29T16:04:25.542Z,8.05
2023-03-29T16:06:58.598Z,7.98
2023-03-29T16:09:28.280Z,7.91
2023-03-29T16:12:00.485Z,7.85
2023-03-29T16:14:31.918Z,7.82
2023-03-29T16:17:03.346Z,7.79
2023-03-29T16:19:34.581Z,7.77
2023-03-29T16:22:07.699Z,7.72
2023-03-29T16:24:38.135Z,7.67
2023-03-29T16:27:07.743Z,7.62
2023-03-29T16:29:37.431Z,7.61
2023-03-29T16:32:07.259Z,7.66
2023-03-29T16:34:38.246Z,7.55
2023-03-29T16:37:10.479Z,7.50
2023-03-29T16:39:40.668Z,7.43
2023-03-29T16:42:10.482Z,7.40
2023-03-29T16:44:40.018Z,7.40
2023-03-29T16:47:09.591Z,7.35
2023-03-29T16:49:40.175Z,7.31
2023-03-29T16:52:12.514Z,7.31
2023-03-29T16:54:42.679Z,7.26
2023-03-29T16:57:13.096Z,7.21
2023-03-29T16:59:45.223Z,7.18
2023-03-29T17:02:14.934Z,7.22
2023-03-29T17:04:44.609Z,7.15
2023-03-29T17:07:16.844Z,7.09
2023-03-29T17:09:46.473Z,7.08
2023-03-29T17:12:16.242Z,7.07
2023-03-29T17:14:45.956Z,7.06
2023-03-29T17:17:15.484Z,7.03
2023-03-29T17:19:45.160Z,7.01
2023-03-29T17:22:17.313Z,7.00
2023-03-29T17:24:46.870Z,6.92
2023-03-29T17:27:16.475Z,6.94
2023-03-29T17:29:46.069Z,6.85
2023-03-29T17:32:15.777Z,6.86
2023-03-29T17:34:46.546Z,6.83
2023-03-29T17:37:18.722Z,6.84
2023-03-29T17:39:48.388Z,6.81
2023-03-29T17:42:18.830Z,6.74
2023-03-29T17:44:48.429Z,6.72
2023-03-29T17:47:18.075Z,6.75
2023-03-29T17:52:24.667Z,6.64
2023-03-29T17:54:54.252Z,6.59
2023-03-29T17:57:24.024Z,6.67
2023-03-29T17:59:53.610Z,6.63
2023-03-29T18:02:24.791Z,6.57
2023-03-29T18:04:54.643Z,6.61
2023-03-29T18:07:26.769Z,6.61
2023-03-29T18:09:56.741Z,6.57
2023-03-29T18:12:27.568Z,6.54
2023-03-29T18:14:57.348Z,6.58
2023-03-29T18:17:27.852Z,6.51
2023-03-29T18:19:57.429Z,6.51
2023-03-29T18:22:29.552Z,6.50
2023-03-29T18:24:59.177Z,6.45
2023-03-29T18:27:28.733Z,6.48
2023-03-29T18:29:58.895Z,6.44
2023-03-29T18:32:28.541Z,6.44
2023-03-29T18:34:58.165Z,6.39
2023-03-29T18:37:31.932Z,6.37
2023-03-29T18:40:02.142Z,6.38
2023-03-29T18:42:31.684Z,6.34
2023-03-29T18:45:01.267Z,6.35
2023-03-29T18:47:32.386Z,6.32
2023-03-29T18:50:02.968Z,6.27
2023-03-29T18:52:35.096Z,6.31
2023-03-29T18:55:04.675Z,6.29
2023-03-29T18:57:34.400Z,6.24
2023-03-29T19:00:10.601Z,6.28
2023-03-29T19:02:40.451Z,6.29
2023-03-29T19:05:11.471Z,6.26
2023-03-29T19:07:43.924Z,6.29
2023-03-29T19:10:13.828Z,6.25
2023-03-29T19:12:43.372Z,6.27
2023-03-29T19:15:14.714Z,6.25
2023-03-29T19:17:44.323Z,6.26
2023-03-29T19:20:15.170Z,6.29
2023-03-29T19:22:48.165Z,6.32
2023-03-29T19:25:17.962Z,6.36
2023-03-29T19:30:23.578Z,6.35
2023-03-29T19:32:53.322Z,6.35
2023-03-29T19:35:22.982Z,6.40
2023-03-29T19:37:55.142Z,6.45
2023-03-29T19:40:28.860Z,6.42
2023-03-29T19:42:58.513Z,6.48
2023-03-29T19:45:32.976Z,6.38
2023-03-29T19:48:03.838Z,6.40
2023-03-29T19:50:34.140Z,6.40
2023-03-29T19:53:06.374Z,6.35
2023-03-29T19:55:39.083Z,6.36
2023-03-29T19:58:09.355Z,6.42
2023-03-29T20:00:39.328Z,6.38
2023-03-29T20:03:10.229Z,6.35
2023-03-29T20:05:41.291Z,6.38
2023-03-29T20:08:13.785Z,6.37
2023-03-29T20:10:43.331Z,6.40
2023-03-29T20:15:48.814Z,6.32
2023-03-29T20:18:18.431Z,6.33
2023-03-29T20:20:48.233Z,6.35
2023-03-29T20:23:20.689Z,6.35
2023-03-29T20:25:50.292Z,6.40
2023-03-29T20:28:19.891Z,6.39
2023-03-29T20:30:51.446Z,6.34
2023-03-29T20:33:21.135Z,6.40
2023-03-29T20:35:51.538Z,6.35
2023-03-29T20:38:23.741Z,6.39
2023-03-29T20:40:53.659Z,6.43
2023-03-29T20:43:23.394Z,6.41
2023-03-29T20:45:54.644Z,6.44
2023-03-29T20:48:25.336Z,6.44
2023-03-29T20:50:55.643Z,6.37
2023-03-29T20:53:34.802Z,6.36
2023-03-29T20:56:06.560Z,6.31
2023-03-29T20:58:36.168Z,6.29
2023-03-29T21:01:05.927Z,6.26
2023-03-29T21:03:35.913Z,6.18
2023-03-29T21:06:05.996Z,6.19
2023-03-29T21:08:38.821Z,6.19
2023-03-29T21:11:10.082Z,6.16
2023-03-29T21:13:40.051Z,6.19
2023-03-29T21:16:10.891Z,6.18
2023-03-29T21:18:41.764Z,6.19
2023-03-29T21:21:12.629Z,6.21
2023-03-29T21:23:47.714Z,6.21
2023-03-29T21:26:17.371Z,6.28
2023-03-29T21:28:48.830Z,6.21
2023-03-29T21:31:18.535Z,6.11
2023-03-29T21:33:48.342Z,6.10
2023-03-29T21:36:17.989Z,6.00
2023-03-29T21:38:50.254Z,5.90
2023-03-29T21:41:20.569Z,5.82
2023-03-29T21:43:50.767Z,5.80
2023-03-29T21:46:20.683Z,5.73
2023-03-29T21:48:50.520Z,5.74
2023-03-29T21:51:20.180Z,5.80
2023-03-29T21:53:52.392Z,5.83
2023-03-29T21:56:22.590Z,5.85
2023-03-29T21:58:52.300Z,5.83
2023-03-29T22:01:21.902Z,5.86
2023-03-29T22:03:51.629Z,5.85
2023-03-29T22:06:21.522Z,5.92
2023-03-29T22:08:53.701Z,6.01
2023-03-29T22:11:23.605Z,6.03
2023-03-29T22:13:54.793Z,6.05
2023-03-29T22:16:25.862Z,6.06
2023-03-29T22:18:55.640Z,6.01
2023-03-29T22:21:27.124Z,6.00
2023-03-29T22:24:00.601Z,6.00
2023-03-29T22:26:32.579Z,6.02
2023-03-29T22:29:03.546Z,6.01
2023-03-29T22:31:35.219Z,6.02
2023-03-29T22:34:04.869Z,6.09
2023-03-29T22:36:34.703Z,6.12
2023-03-29T22:39:08.806Z,6.13
2023-03-29T22:41:38.412Z,6.19
2023-03-29T22:44:08.667Z,6.19
2023-03-29T22:46:38.433Z,6.16
2023-03-29T22:49:08.118Z,6.20
2023-03-29T22:51:37.722Z,6.24
2023-03-29T22:54:10.720Z,6.23
2023-03-29T22:56:40.389Z,6.23
2023-03-29T22:59:09.998Z,6.24
2023-03-29T23:01:39.626Z,6.27
2023-03-29T23:04:09.353Z,6.26
2023-03-29T23:06:38.984Z,6.26
2023-03-29T23:09:11.282Z,6.24
2023-03-29T23:11:40.876Z,6.17
2023-03-29T23:14:10.492Z,6.11
2023-03-29T23:16:40.307Z,5.96
2023-03-29T23:19:12.724Z,5.85
2023-03-29T23:21:42.353Z,5.80
2023-03-29T23:24:18.820Z,5.74
2023-03-29T23:26:50.817Z,5.65
2023-03-29T23:29:20.501Z,5.55
2023-03-29T23:31:50.419Z,5.46
2023-03-29T23:34:20.429Z,5.50
2023-03-29T23:36:50.282Z,5.45
2023-03-29T23:39:22.520Z,5.49
2023-03-29T23:41:52.577Z,5.53
2023-03-29T23:44:22.209Z,5.58
2023-03-29T23:46:51.904Z,5.59
2023-03-29T23:49:22.956Z,5.63
2023-03-29T23:51:53.308Z,5.64
2023-03-29T23:54:25.487Z,5.65
2023-03-29T23:56:55.171Z,5.65
2023-03-29T23:59:29.994Z,5.59
